sensor_id;sensor_type;location;lat;lon;timestamp;pressure;altitude;pressure_sealevel;temperature
70668;BMP280;58242;51.250;-1.118;2023-05-07T00:01:01;100084.34;;;19.73
70668;BMP280;58242;51.250;-1.118;2023-05-07T00:03:27;100079.69;;;19.73
70668;BMP280;58242;51.250;-1.118;2023-05-07T00:05:52;100084.72;;;19.75
70668;BMP280;58242;51.250;-1.118;2023-05-07T00:08:18;100086.69;;;19.74
70668;BMP280;58242;51.250;-1.118;2023-05-07T00:10:44;100084.34;;;19.73
70668;BMP280;58242;51.250;-1.118;2023-05-07T00:13:09;100080.47;;;19.74
70668;BMP280;58242;51.250;-1.118;2023-05-07T00:15:35;100078.91;;;19.73
70668;BMP280;58242;51.250;-1.118;2023-05-07T00:18:00;100075.44;;;19.72
70668;BMP280;58242;51.250;-1.118;2023-05-07T00:20:25;100074.66;;;19.72
70668;BMP280;58242;51.250;-1.118;2023-05-07T00:22:51;100080.06;;;19.72
70668;BMP280;58242;51.250;-1.118;2023-05-07T00:25:16;100076.56;;;19.71
70668;BMP280;58242;51.250;-1.118;2023-05-07T00:27:42;100074.25;;;19.70
70668;BMP280;58242;51.250;-1.118;2023-05-07T00:30:07;100078.53;;;19.71
70668;BMP280;58242;51.250;-1.118;2023-05-07T00:32:33;100070.78;;;19.70
70668;BMP280;58242;51.250;-1.118;2023-05-07T00:34:58;100080.06;;;19.69
70668;BMP280;58242;51.250;-1.118;2023-05-07T00:37:24;100080.84;;;19.69
70668;BMP280;58242;51.250;-1.118;2023-05-07T00:39:49;100077.75;;;19.70
70668;BMP280;58242;51.250;-1.118;2023-05-07T00:42:14;100080.84;;;19.69
70668;BMP280;58242;51.250;-1.118;2023-05-07T00:44:41;100078.53;;;19.71
70668;BMP280;58242;51.250;-1.118;2023-05-07T00:47:06;100067.69;;;19.71
70668;BMP280;58242;51.250;-1.118;2023-05-07T00:49:38;100065.72;;;19.71
70668;BMP280;58242;51.250;-1.118;2023-05-07T00:52:05;100064.94;;;19.68
70668;BMP280;58242;51.250;-1.118;2023-05-07T00:54:30;100073.84;;;19.68
70668;BMP280;58242;51.250;-1.118;2023-05-07T00:56:56;100068.06;;;19.66
70668;BMP280;58242;51.250;-1.118;2023-05-07T00:59:21;100076.97;;;19.63
70668;BMP280;58242;51.250;-1.118;2023-05-07T01:01:46;100072.69;;;19.62
70668;BMP280;58242;51.250;-1.118;2023-05-07T01:04:12;100076.53;;;19.61
70668;BMP280;58242;51.250;-1.118;2023-05-07T01:06:37;100076.91;;;19.60
70668;BMP280;58242;51.250;-1.118;2023-05-07T01:09:03;100076.16;;;19.59
70668;BMP280;58242;51.250;-1.118;2023-05-07T01:11:29;100077.31;;;19.58
70668;BMP280;58242;51.250;-1.118;2023-05-07T01:13:55;100077.69;;;19.57
70668;BMP280;58242;51.250;-1.118;2023-05-07T01:16:21;100080.78;;;19.55
70668;BMP280;58242;51.250;-1.118;2023-05-07T01:18:47;100076.91;;;19.56
70668;BMP280;58242;51.250;-1.118;2023-05-07T01:21:15;100068.78;;;19.56
70668;BMP280;58242;51.250;-1.118;2023-05-07T01:23:42;100070.72;;;19.56
70668;BMP280;58242;51.250;-1.118;2023-05-07T01:26:07;100069.16;;;19.55
70668;BMP280;58242;51.250;-1.118;2023-05-07T01:28:32;100066.06;;;19.56
70668;BMP280;58242;51.250;-1.118;2023-05-07T01:31:02;100064.13;;;19.57
70668;BMP280;58242;51.250;-1.118;2023-05-07T01:33:31;100070.31;;;19.57
70668;BMP280;58242;51.250;-1.118;2023-05-07T01:35:57;100072.56;;;19.45
70668;BMP280;58242;51.250;-1.118;2023-05-07T01:38:25;100069.16;;;19.52
70668;BMP280;58242;51.250;-1.118;2023-05-07T01:40:52;100077.66;;;19.53
70668;BMP280;58242;51.250;-1.118;2023-05-07T01:43:18;100076.53;;;19.54
70668;BMP280;58242;51.250;-1.118;2023-05-07T01:45:44;100076.91;;;19.56
70668;BMP280;58242;51.250;-1.118;2023-05-07T01:48:11;100079.63;;;19.56
70668;BMP280;58242;51.250;-1.118;2023-05-07T01:50:37;100079.63;;;19.56
70668;BMP280;58242;51.250;-1.118;2023-05-07T01:53:02;100076.91;;;19.56
70668;BMP280;58242;51.250;-1.118;2023-05-07T01:55:28;100076.53;;;19.54
70668;BMP280;58242;51.250;-1.118;2023-05-07T01:57:53;100078.81;;;19.52
70668;BMP280;58242;51.250;-1.118;2023-05-07T02:00:18;100084.25;;;19.52
70668;BMP280;58242;51.250;-1.118;2023-05-07T02:02:44;100080.38;;;19.50
70668;BMP280;58242;51.250;-1.118;2023-05-07T02:05:09;100079.19;;;19.48
70668;BMP280;58242;51.250;-1.118;2023-05-07T02:07:35;100071.41;;;19.46
70668;BMP280;58242;51.250;-1.118;2023-05-07T02:10:00;100079.91;;;19.45
70668;BMP280;58242;51.250;-1.118;2023-05-07T02:12:25;100076.81;;;19.43
70668;BMP280;58242;51.250;-1.118;2023-05-07T02:14:51;100077.97;;;19.42
70668;BMP280;58242;51.250;-1.118;2023-05-07T02:17:16;100086.50;;;19.40
70668;BMP280;58242;51.250;-1.118;2023-05-07T02:19:41;100093.06;;;19.39
70668;BMP280;58242;51.250;-1.118;2023-05-07T02:22:07;100095.00;;;19.39
70668;BMP280;58242;51.250;-1.118;2023-05-07T02:24:32;100096.16;;;19.38
70668;BMP280;58242;51.250;-1.118;2023-05-07T02:26:58;100095.75;;;19.36
70668;BMP280;58242;51.250;-1.118;2023-05-07T02:29:23;100102.34;;;19.35
70668;BMP280;58242;51.250;-1.118;2023-05-07T02:31:48;100100.78;;;19.34
70668;BMP280;58242;51.250;-1.118;2023-05-07T02:34:18;100094.91;;;19.22
70668;BMP280;58242;51.250;-1.118;2023-05-07T02:36:43;100104.59;;;19.26
70668;BMP280;58242;51.250;-1.118;2023-05-07T02:39:08;100098.78;;;19.24
70668;BMP280;58242;51.250;-1.118;2023-05-07T02:41:34;100103.81;;;19.22
70668;BMP280;58242;51.250;-1.118;2023-05-07T02:43:59;100099.91;;;19.20
70668;BMP280;58242;51.250;-1.118;2023-05-07T02:46:24;100105.31;;;19.17
70668;BMP280;58242;51.250;-1.118;2023-05-07T02:48:50;100102.19;;;19.11
70668;BMP280;58242;51.250;-1.118;2023-05-07T02:51:18;100103.72;;;19.09
70668;BMP280;58242;51.250;-1.118;2023-05-07T02:53:44;100109.13;;;19.05
70668;BMP280;58242;51.250;-1.118;2023-05-07T02:56:10;100116.09;;;19.03
70668;BMP280;58242;51.250;-1.118;2023-05-07T02:58:35;100111.41;;;19.00
70668;BMP280;58242;51.250;-1.118;2023-05-07T03:01:01;100111.78;;;18.99
70668;BMP280;58242;51.250;-1.118;2023-05-07T03:03:26;100120.28;;;18.97
70668;BMP280;58242;51.250;-1.118;2023-05-07T03:05:51;100120.69;;;18.96
70668;BMP280;58242;51.250;-1.118;2023-05-07T03:08:17;100125.69;;;18.94
70668;BMP280;58242;51.250;-1.118;2023-05-07T03:10:42;100124.88;;;18.90
70668;BMP280;58242;51.250;-1.118;2023-05-07T03:13:07;100126.41;;;18.87
70668;BMP280;58242;51.250;-1.118;2023-05-07T03:15:33;100127.91;;;18.85
70668;BMP280;58242;51.250;-1.118;2023-05-07T03:17:58;100137.59;;;18.83
70668;BMP280;58242;51.250;-1.118;2023-05-07T03:20:23;100136.81;;;18.82
70668;BMP280;58242;51.250;-1.118;2023-05-07T03:22:48;100134.84;;;18.79
70668;BMP280;58242;51.250;-1.118;2023-05-07T03:25:14;100135.22;;;18.78
70668;BMP280;58242;51.250;-1.118;2023-05-07T03:27:40;100137.13;;;18.77
70668;BMP280;58242;51.250;-1.118;2023-05-07T03:30:07;100141.81;;;18.77
70668;BMP280;58242;51.250;-1.118;2023-05-07T03:32:34;100141.03;;;18.76
70668;BMP280;58242;51.250;-1.118;2023-05-07T03:35:00;100149.13;;;18.73
70668;BMP280;58242;51.250;-1.118;2023-05-07T03:37:25;100140.56;;;18.71
70668;BMP280;58242;51.250;-1.118;2023-05-07T03:39:51;100146.00;;;18.71
70668;BMP280;58242;51.250;-1.118;2023-05-07T03:42:16;100146.78;;;18.71
70668;BMP280;58242;51.250;-1.118;2023-05-07T03:44:41;100147.91;;;18.70
70668;BMP280;58242;51.250;-1.118;2023-05-07T03:47:06;100144.44;;;18.70
70668;BMP280;58242;51.250;-1.118;2023-05-07T03:49:32;100146.75;;;18.68
70668;BMP280;58242;51.250;-1.118;2023-05-07T03:51:58;100149.00;;;18.66
70668;BMP280;58242;51.250;-1.118;2023-05-07T03:54:23;100150.19;;;18.65
70668;BMP280;58242;51.250;-1.118;2023-05-07T03:56:48;100154.03;;;18.64
70668;BMP280;58242;51.250;-1.118;2023-05-07T03:59:14;100152.09;;;18.65
70668;BMP280;58242;51.250;-1.118;2023-05-07T04:01:39;100154.03;;;18.64
70668;BMP280;58242;51.250;-1.118;2023-05-07T04:04:05;100159.81;;;18.63
70668;BMP280;58242;51.250;-1.118;2023-05-07T04:06:30;100165.63;;;18.61
70668;BMP280;58242;51.250;-1.118;2023-05-07T04:08:56;100159.78;;;18.59
70668;BMP280;58242;51.250;-1.118;2023-05-07T04:11:21;100165.19;;;18.59
70668;BMP280;58242;51.250;-1.118;2023-05-07T04:13:46;100174.88;;;18.60
70668;BMP280;58242;51.250;-1.118;2023-05-07T04:16:12;100173.75;;;18.61
70668;BMP280;58242;51.250;-1.118;2023-05-07T04:18:38;100171.03;;;18.61
70668;BMP280;58242;51.250;-1.118;2023-05-07T04:21:03;100176.44;;;18.61
70668;BMP280;58242;51.250;-1.118;2023-05-07T04:23:29;100172.97;;;18.61
70668;BMP280;58242;51.250;-1.118;2023-05-07T04:25:54;100176.44;;;18.61
70668;BMP280;58242;51.250;-1.118;2023-05-07T04:28:20;100184.94;;;18.60
70668;BMP280;58242;51.250;-1.118;2023-05-07T04:30:45;100191.13;;;18.60
70668;BMP280;58242;51.250;-1.118;2023-05-07T04:33:11;100190.34;;;18.60
70668;BMP280;58242;51.250;-1.118;2023-05-07T04:35:36;100189.16;;;18.57
70668;BMP280;58242;51.250;-1.118;2023-05-07T04:38:02;100194.16;;;18.55
70668;BMP280;58242;51.250;-1.118;2023-05-07T04:40:27;100196.88;;;18.55
70668;BMP280;58242;51.250;-1.118;2023-05-07T04:42:52;100206.13;;;18.54
70668;BMP280;58242;51.250;-1.118;2023-05-07T04:45:18;100214.25;;;18.54
70668;BMP280;58242;51.250;-1.118;2023-05-07T04:47:43;100208.09;;;18.54
70668;BMP280;58242;51.250;-1.118;2023-05-07T04:50:09;100211.53;;;18.54
70668;BMP280;58242;51.250;-1.118;2023-05-07T04:52:36;100201.88;;;18.53
70668;BMP280;58242;51.250;-1.118;2023-05-07T04:55:01;100206.13;;;18.54
70668;BMP280;58242;51.250;-1.118;2023-05-07T04:57:27;100204.59;;;18.53
70668;BMP280;58242;51.250;-1.118;2023-05-07T04:59:53;100208.84;;;18.54
70668;BMP280;58242;51.250;-1.118;2023-05-07T05:02:18;100210.78;;;18.54
70668;BMP280;58242;51.250;-1.118;2023-05-07T05:04:43;100215.81;;;18.55
70668;BMP280;58242;51.250;-1.118;2023-05-07T05:07:09;100204.22;;;18.55
70668;BMP280;58242;51.250;-1.118;2023-05-07T05:09:34;100199.22;;;18.57
70668;BMP280;58242;51.250;-1.118;2023-05-07T05:11:59;100205.03;;;18.59
70668;BMP280;58242;51.250;-1.118;2023-05-07T05:14:25;100205.47;;;18.64
70668;BMP280;58242;51.250;-1.118;2023-05-07T05:16:50;100219.09;;;18.67
70668;BMP280;58242;51.250;-1.118;2023-05-07T05:19:15;100214.84;;;18.70
70668;BMP280;58242;51.250;-1.118;2023-05-07T05:21:41;100216.81;;;18.73
70668;BMP280;58242;51.250;-1.118;2023-05-07T05:24:07;100218.78;;;18.76
70668;BMP280;58242;51.250;-1.118;2023-05-07T05:26:32;100221.09;;;18.77
70668;BMP280;58242;51.250;-1.118;2023-05-07T05:28:57;100217.66;;;18.80
70668;BMP280;58242;51.250;-1.118;2023-05-07T05:31:23;100215.00;;;18.84
70668;BMP280;58242;51.250;-1.118;2023-05-07T05:33:48;100232.06;;;18.87
70668;BMP280;58242;51.250;-1.118;2023-05-07T05:36:13;100223.19;;;18.90
70668;BMP280;58242;51.250;-1.118;2023-05-07T05:38:39;100240.59;;;18.93
70668;BMP280;58242;51.250;-1.118;2023-05-07T05:41:05;100231.75;;;18.96
70668;BMP280;58242;51.250;-1.118;2023-05-07T05:43:31;100243.75;;;18.98
70668;BMP280;58242;51.250;-1.118;2023-05-07T05:45:56;100235.25;;;19.00
70668;BMP280;58242;51.250;-1.118;2023-05-07T05:48:22;100237.22;;;19.02
70668;BMP280;58242;51.250;-1.118;2023-05-07T05:50:48;100236.06;;;19.03
70668;BMP280;58242;51.250;-1.118;2023-05-07T05:53:13;100244.25;;;19.07
70668;BMP280;58242;51.250;-1.118;2023-05-07T05:55:39;100253.94;;;19.11
70668;BMP280;58242;51.250;-1.118;2023-05-07T05:58:04;100259.81;;;19.17
70668;BMP280;58242;51.250;-1.118;2023-05-07T06:00:29;100249.41;;;19.22
70668;BMP280;58242;51.250;-1.118;2023-05-07T06:02:55;100261.44;;;19.28
70668;BMP280;58242;51.250;-1.118;2023-05-07T06:05:20;100259.19;;;19.33
70668;BMP280;58242;51.250;-1.118;2023-05-07T06:07:46;100263.09;;;19.39
70668;BMP280;58242;51.250;-1.118;2023-05-07T06:10:11;100264.25;;;19.41
70668;BMP280;58242;51.250;-1.118;2023-05-07T06:12:36;100262.78;;;19.47
70668;BMP280;58242;51.250;-1.118;2023-05-07T06:15:02;100265.94;;;19.52
70668;BMP280;58242;51.250;-1.118;2023-05-07T06:17:28;100265.59;;;19.57
70668;BMP280;58242;51.250;-1.118;2023-05-07T06:19:53;100262.88;;;19.61
70668;BMP280;58242;51.250;-1.118;2023-05-07T06:22:18;100271.06;;;19.64
70668;BMP280;58242;51.250;-1.118;2023-05-07T06:24:44;100278.81;;;19.66
70668;BMP280;58242;51.250;-1.118;2023-05-07T06:27:09;100282.69;;;19.68
70668;BMP280;58242;51.250;-1.118;2023-05-07T06:29:34;100286.22;;;19.72
70668;BMP280;58242;51.250;-1.118;2023-05-07T06:32:10;100286.63;;;19.74
70668;BMP280;58242;51.250;-1.118;2023-05-07T06:34:36;100288.59;;;19.77
70668;BMP280;58242;51.250;-1.118;2023-05-07T06:37:02;100282.00;;;19.78
70668;BMP280;58242;51.250;-1.118;2023-05-07T06:39:27;100285.53;;;19.82
70668;BMP280;58242;51.250;-1.118;2023-05-07T06:41:53;100278.16;;;19.82
70668;BMP280;58242;51.250;-1.118;2023-05-07T06:44:18;100275.47;;;19.86
70668;BMP280;58242;51.250;-1.118;2023-05-07T06:46:43;100273.56;;;19.89
70668;BMP280;58242;51.250;-1.118;2023-05-07T06:49:09;100275.50;;;19.92
70668;BMP280;58242;51.250;-1.118;2023-05-07T06:51:34;100270.50;;;19.98
70668;BMP280;58242;51.250;-1.118;2023-05-07T06:53:59;100279.84;;;20.04
70668;BMP280;58242;51.250;-1.118;2023-05-07T06:56:25;100286.09;;;20.11
70668;BMP280;58242;51.250;-1.118;2023-05-07T06:58:50;100285.75;;;20.19
70668;BMP280;58242;51.250;-1.118;2023-05-07T07:01:16;100288.13;;;20.27
70668;BMP280;58242;51.250;-1.118;2023-05-07T07:03:41;100289.75;;;20.35
70668;BMP280;58242;51.250;-1.118;2023-05-07T07:06:06;100285.88;;;20.43
70668;BMP280;58242;51.250;-1.118;2023-05-07T07:08:32;100286.69;;;20.50
70668;BMP280;58242;51.250;-1.118;2023-05-07T07:10:57;100289.03;;;20.55
70668;BMP280;58242;51.250;-1.118;2023-05-07T07:13:23;100291.38;;;20.60
70668;BMP280;58242;51.250;-1.118;2023-05-07T07:15:48;100295.25;;;20.66
70668;BMP280;58242;51.250;-1.118;2023-05-07T07:18:13;100305.78;;;20.71
70668;BMP280;58242;51.250;-1.118;2023-05-07T07:20:39;100310.44;;;20.73
70668;BMP280;58242;51.250;-1.118;2023-05-07T07:23:04;100313.94;;;20.77
70668;BMP280;58242;51.250;-1.118;2023-05-07T07:25:30;100311.22;;;20.81
70668;BMP280;58242;51.250;-1.118;2023-05-07T07:27:55;100301.94;;;20.85
70668;BMP280;58242;51.250;-1.118;2023-05-07T07:30:20;100310.09;;;20.89
70668;BMP280;58242;51.250;-1.118;2023-05-07T07:32:46;100307.00;;;20.93
70668;BMP280;58242;51.250;-1.118;2023-05-07T07:35:11;100310.13;;;20.95
70668;BMP280;58242;51.250;-1.118;2023-05-07T07:37:36;100307.78;;;20.97
70668;BMP280;58242;51.250;-1.118;2023-05-07T07:40:02;100313.63;;;21.03
70668;BMP280;58242;51.250;-1.118;2023-05-07T07:42:28;100318.34;;;21.09
70668;BMP280;58242;51.250;-1.118;2023-05-07T07:44:54;100323.41;;;21.14
70668;BMP280;58242;51.250;-1.118;2023-05-07T07:47:19;100326.50;;;21.16
70668;BMP280;58242;51.250;-1.118;2023-05-07T07:49:45;100327.28;;;21.16
70668;BMP280;58242;51.250;-1.118;2023-05-07T07:52:10;100332.34;;;21.18
70668;BMP280;58242;51.250;-1.118;2023-05-07T07:54:35;100323.00;;;21.19
70668;BMP280;58242;51.250;-1.118;2023-05-07T07:57:01;100332.72;;;21.23
70668;BMP280;58242;51.250;-1.118;2023-05-07T07:59:26;100334.66;;;21.26
70668;BMP280;58242;51.250;-1.118;2023-05-07T08:01:52;100339.72;;;21.27
70668;BMP280;58242;51.250;-1.118;2023-05-07T08:04:20;100339.34;;;21.25
70668;BMP280;58242;51.250;-1.118;2023-05-07T08:06:46;100339.34;;;21.25
70668;BMP280;58242;51.250;-1.118;2023-05-07T08:09:11;100338.56;;;21.28
70668;BMP280;58242;51.250;-1.118;2023-05-07T08:11:36;100339.72;;;21.34
70668;BMP280;58242;51.250;-1.118;2023-05-07T08:14:02;100345.94;;;21.38
70668;BMP280;58242;51.250;-1.118;2023-05-07T08:16:28;100342.44;;;21.41
70668;BMP280;58242;51.250;-1.118;2023-05-07T08:18:54;100356.47;;;21.43
70668;BMP280;58242;51.250;-1.118;2023-05-07T08:21:19;100343.22;;;21.42
70668;BMP280;58242;51.250;-1.118;2023-05-07T08:23:45;100350.63;;;21.41
70668;BMP280;58242;51.250;-1.118;2023-05-07T08:26:11;100352.94;;;21.39
70668;BMP280;58242;51.250;-1.118;2023-05-07T08:28:36;100355.28;;;21.37
70668;BMP280;58242;51.250;-1.118;2023-05-07T08:31:01;100357.25;;;21.40
70668;BMP280;58242;51.250;-1.118;2023-05-07T08:33:27;100358.03;;;21.44
70668;BMP280;58242;51.250;-1.118;2023-05-07T08:35:52;100367.34;;;21.50
70668;BMP280;58242;51.250;-1.118;2023-05-07T08:38:18;100362.31;;;21.55
70668;BMP280;58242;51.250;-1.118;2023-05-07T08:40:43;100367.75;;;21.59
70668;BMP280;58242;51.250;-1.118;2023-05-07T08:43:12;100366.97;;;21.61
70668;BMP280;58242;51.250;-1.118;2023-05-07T08:45:37;100379.00;;;21.54
70668;BMP280;58242;51.250;-1.118;2023-05-07T08:48:09;100377.06;;;21.61
70668;BMP280;58242;51.250;-1.118;2023-05-07T08:50:37;100382.50;;;21.64
70668;BMP280;58242;51.250;-1.118;2023-05-07T08:53:03;100388.34;;;21.66
70668;BMP280;58242;51.250;-1.118;2023-05-07T08:55:29;100401.56;;;21.71
70668;BMP280;58242;51.250;-1.118;2023-05-07T08:57:55;100387.19;;;21.74
70668;BMP280;58242;51.250;-1.118;2023-05-07T09:00:20;100391.84;;;21.77
70668;BMP280;58242;51.250;-1.118;2023-05-07T09:02:46;100392.22;;;21.79
70668;BMP280;58242;51.250;-1.118;2023-05-07T09:05:11;100397.31;;;21.80
70668;BMP280;58242;51.250;-1.118;2023-05-07T09:07:36;100400.44;;;21.86
70668;BMP280;58242;51.250;-1.118;2023-05-07T09:10:03;100399.25;;;21.90
70668;BMP280;58242;51.250;-1.118;2023-05-07T09:12:29;100399.66;;;21.95
70668;BMP280;58242;51.250;-1.118;2023-05-07T09:14:54;100398.09;;;21.98
70668;BMP280;58242;51.250;-1.118;2023-05-07T09:17:20;100401.59;;;21.95
70668;BMP280;58242;51.250;-1.118;2023-05-07T09:19:45;100402.75;;;21.91
70668;BMP280;58242;51.250;-1.118;2023-05-07T09:22:11;100409.00;;;21.88
70668;BMP280;58242;51.250;-1.118;2023-05-07T09:24:37;100404.31;;;21.85
70668;BMP280;58242;51.250;-1.118;2023-05-07T09:27:07;100411.72;;;21.84
70668;BMP280;58242;51.250;-1.118;2023-05-07T09:29:33;100412.50;;;21.81
70668;BMP280;58242;51.250;-1.118;2023-05-07T09:32:05;100400.81;;;21.81
70668;BMP280;58242;51.250;-1.118;2023-05-07T09:34:30;100411.72;;;21.81
70668;BMP280;58242;51.250;-1.118;2023-05-07T09:36:58;100400.03;;;21.80
70668;BMP280;58242;51.250;-1.118;2023-05-07T09:39:23;100402.41;;;21.82
70668;BMP280;58242;51.250;-1.118;2023-05-07T09:41:49;100400.81;;;21.84
70668;BMP280;58242;51.250;-1.118;2023-05-07T09:44:16;100401.97;;;21.90
70668;BMP280;58242;51.250;-1.118;2023-05-07T09:46:42;100408.19;;;21.97
70668;BMP280;58242;51.250;-1.118;2023-05-07T09:49:16;100417.53;;;22.03
70668;BMP280;58242;51.250;-1.118;2023-05-07T09:51:48;100426.88;;;22.09
70668;BMP280;58242;51.250;-1.118;2023-05-07T09:54:14;100425.31;;;22.15
70668;BMP280;58242;51.250;-1.118;2023-05-07T09:56:40;100431.53;;;22.22
70668;BMP280;58242;51.250;-1.118;2023-05-07T09:59:10;100437.75;;;22.29
70668;BMP280;58242;51.250;-1.118;2023-05-07T10:01:38;100451.75;;;22.31
70668;BMP280;58242;51.250;-1.118;2023-05-07T10:04:05;100444.00;;;22.30
70668;BMP280;58242;51.250;-1.118;2023-05-07T10:06:31;100447.50;;;22.30
70668;BMP280;58242;51.250;-1.118;2023-05-07T10:08:57;100451.75;;;22.31
70668;BMP280;58242;51.250;-1.118;2023-05-07T10:11:22;100447.88;;;22.32
70668;BMP280;58242;51.250;-1.118;2023-05-07T10:13:48;100439.31;;;22.30
70668;BMP280;58242;51.250;-1.118;2023-05-07T10:16:14;100445.94;;;22.29
70668;BMP280;58242;51.250;-1.118;2023-05-07T10:18:40;100457.19;;;22.31
70668;BMP280;58242;51.250;-1.118;2023-05-07T10:21:22;100452.16;;;22.37
70668;BMP280;58242;51.250;-1.118;2023-05-07T10:23:50;100454.84;;;22.44
70668;BMP280;58242;51.250;-1.118;2023-05-07T10:26:18;100462.25;;;22.50
70668;BMP280;58242;51.250;-1.118;2023-05-07T10:28:46;100469.25;;;22.51
70668;BMP280;58242;51.250;-1.118;2023-05-07T10:34:00;100484.47;;;22.38
70668;BMP280;58242;51.250;-1.118;2023-05-07T10:36:26;100490.66;;;22.32
70668;BMP280;58242;51.250;-1.118;2023-05-07T10:38:53;100482.88;;;22.24
70668;BMP280;58242;51.250;-1.118;2023-05-07T10:41:19;100489.91;;;22.21
70668;BMP280;58242;51.250;-1.118;2023-05-07T10:43:46;100489.13;;;22.21
70668;BMP280;58242;51.250;-1.118;2023-05-07T10:46:15;100493.03;;;22.23
70668;BMP280;58242;51.250;-1.118;2023-05-07T10:51:25;100501.94;;;22.17
70668;BMP280;58242;51.250;-1.118;2023-05-07T10:56:35;100502.75;;;22.07
70668;BMP280;58242;51.250;-1.118;2023-05-07T11:01:58;100496.88;;;22.09
70668;BMP280;58242;51.250;-1.118;2023-05-07T11:04:24;100510.91;;;22.17
70668;BMP280;58242;51.250;-1.118;2023-05-07T11:12:16;100510.91;;;22.62
70668;BMP280;58242;51.250;-1.118;2023-05-07T11:17:08;100504.53;;;23.19
70668;BMP280;58242;51.250;-1.118;2023-05-07T11:19:54;100501.78;;;23.36
70668;BMP280;58242;51.250;-1.118;2023-05-07T11:24:59;100496.94;;;23.64
70668;BMP280;58242;51.250;-1.118;2023-05-07T11:27:25;100487.53;;;23.78
70668;BMP280;58242;51.250;-1.118;2023-05-07T11:29:51;100491.28;;;24.04
70668;BMP280;58242;51.250;-1.118;2023-05-07T11:32:26;100492.44;;;24.46
70668;BMP280;58242;51.250;-1.118;2023-05-07T11:34:52;100488.78;;;25.02
70668;BMP280;58242;51.250;-1.118;2023-05-07T11:37:18;100495.38;;;25.70
70668;BMP280;58242;51.250;-1.118;2023-05-07T11:39:44;100501.00;;;26.37
70668;BMP280;58242;51.250;-1.118;2023-05-07T11:42:35;100490.31;;;27.28
70668;BMP280;58242;51.250;-1.118;2023-05-07T11:45:01;100492.63;;;28.92
70668;BMP280;58242;51.250;-1.118;2023-05-07T11:47:30;100492.47;;;30.39
70668;BMP280;58242;51.250;-1.118;2023-05-07T11:49:55;100501.94;;;31.49
70668;BMP280;58242;51.250;-1.118;2023-05-07T11:52:22;100498.09;;;32.53
70668;BMP280;58242;51.250;-1.118;2023-05-07T11:54:58;100492.03;;;33.46
70668;BMP280;58242;51.250;-1.118;2023-05-07T11:57:25;100497.22;;;34.65
70668;BMP280;58242;51.250;-1.118;2023-05-07T11:59:54;100489.69;;;35.25
70668;BMP280;58242;51.250;-1.118;2023-05-07T12:02:20;100500.72;;;34.97
70668;BMP280;58242;51.250;-1.118;2023-05-07T12:04:45;100489.97;;;34.44
70668;BMP280;58242;51.250;-1.118;2023-05-07T12:07:14;100503.31;;;34.23
70668;BMP280;58242;51.250;-1.118;2023-05-07T12:09:44;100499.19;;;33.78
70668;BMP280;58242;51.250;-1.118;2023-05-07T12:12:09;100506.81;;;33.16
70668;BMP280;58242;51.250;-1.118;2023-05-07T12:14:39;100504.59;;;32.68
70668;BMP280;58242;51.250;-1.118;2023-05-07T12:17:06;100496.63;;;33.22
70668;BMP280;58242;51.250;-1.118;2023-05-07T12:19:33;100492.69;;;34.21
70668;BMP280;58242;51.250;-1.118;2023-05-07T12:21:59;100502.31;;;35.12
70668;BMP280;58242;51.250;-1.118;2023-05-07T12:24:24;100493.66;;;35.89
70668;BMP280;58242;51.250;-1.118;2023-05-07T12:26:49;100493.78;;;36.62
70668;BMP280;58242;51.250;-1.118;2023-05-07T12:29:15;100495.41;;;37.07
70668;BMP280;58242;51.250;-1.118;2023-05-07T12:31:41;100492.69;;;37.12
70668;BMP280;58242;51.250;-1.118;2023-05-07T12:34:07;100496.50;;;37.34
70668;BMP280;58242;51.250;-1.118;2023-05-07T12:36:39;100488.97;;;37.70
70668;BMP280;58242;51.250;-1.118;2023-05-07T12:39:06;100494.19;;;37.57
70668;BMP280;58242;51.250;-1.118;2023-05-07T12:41:36;100502.31;;;36.92
70668;BMP280;58242;51.250;-1.118;2023-05-07T12:44:04;100495.94;;;36.38
70668;BMP280;58242;51.250;-1.118;2023-05-07T12:46:29;100495.69;;;35.60
70668;BMP280;58242;51.250;-1.118;2023-05-07T12:48:54;100505.00;;;34.84
70668;BMP280;58242;51.250;-1.118;2023-05-07T12:51:20;100496.28;;;34.13
70668;BMP280;58242;51.250;-1.118;2023-05-07T12:53:45;100505.38;;;33.56
70668;BMP280;58242;51.250;-1.118;2023-05-07T12:56:10;100500.19;;;33.40
70668;BMP280;58242;51.250;-1.118;2023-05-07T12:58:36;100499.09;;;34.04
70668;BMP280;58242;51.250;-1.118;2023-05-07T13:01:06;100503.16;;;34.58
70668;BMP280;58242;51.250;-1.118;2023-05-07T13:03:34;100508.22;;;34.37
70668;BMP280;58242;51.250;-1.118;2023-05-07T13:06:08;100502.34;;;34.03
70668;BMP280;58242;51.250;-1.118;2023-05-07T13:08:41;100509.09;;;34.11
70668;BMP280;58242;51.250;-1.118;2023-05-07T13:11:08;100509.03;;;34.83
70668;BMP280;58242;51.250;-1.118;2023-05-07T13:13:36;100507.09;;;35.11
70668;BMP280;58242;51.250;-1.118;2023-05-07T13:16:02;100511.28;;;35.30
70668;BMP280;58242;51.250;-1.118;2023-05-07T13:18:29;100509.69;;;35.66
70668;BMP280;58242;51.250;-1.118;2023-05-07T13:20:55;100501.69;;;36.15
70668;BMP280;58242;51.250;-1.118;2023-05-07T13:23:20;100512.66;;;36.72
70668;BMP280;58242;51.250;-1.118;2023-05-07T13:25:46;100511.09;;;37.29
70668;BMP280;58242;51.250;-1.118;2023-05-07T13:28:11;100510.25;;;37.67
70668;BMP280;58242;51.250;-1.118;2023-05-07T13:30:37;100512.31;;;37.92
70668;BMP280;58242;51.250;-1.118;2023-05-07T13:33:03;100508.63;;;38.11
70668;BMP280;58242;51.250;-1.118;2023-05-07T13:35:28;100500.97;;;38.36
70668;BMP280;58242;51.250;-1.118;2023-05-07T13:37:54;100504.59;;;38.53
70668;BMP280;58242;51.250;-1.118;2023-05-07T13:40:20;100507.28;;;38.72
70668;BMP280;58242;51.250;-1.118;2023-05-07T13:42:46;100509.16;;;38.96
70668;BMP280;58242;51.250;-1.118;2023-05-07T13:45:12;100515.31;;;39.00
70668;BMP280;58242;51.250;-1.118;2023-05-07T13:47:40;100519.41;;;39.10
70668;BMP280;58242;51.250;-1.118;2023-05-07T13:50:06;100523.75;;;39.11
70668;BMP280;58242;51.250;-1.118;2023-05-07T13:52:32;100513.56;;;39.08
70668;BMP280;58242;51.250;-1.118;2023-05-07T13:54:57;100514.84;;;39.12
70668;BMP280;58242;51.250;-1.118;2023-05-07T13:57:23;100515.00;;;38.98
70668;BMP280;58242;51.250;-1.118;2023-05-07T13:59:49;100509.47;;;38.57